Wetterdaten: Woche 17.06.13 - 23.06.13 (KW25)
Datum Zeit Temp. A. Feuchte A. Luftdruck Regen Wind Richtung Taupunkt Windchill Windben
17.06.2013 00:00 19,5 C 82 % 1015,3 hPa 0,0 l/m 0,0 km/h N 16,2 C 19,5 C 0,0 km/h
17.06.2013 01:00 19,1 C 81 % 1015,2 hPa 0,0 l/m 0,0 km/h N 15,7 C 19,1 C 1,2 km/h
17.06.2013 02:00 18,8 C 80 % 1015,3 hPa 0,0 l/m 0,3 km/h N 15,2 C 18,8 C 3,6 km/h
17.06.2013 03:00 18,2 C 80 % 1015,4 hPa 0,0 l/m 0,0 km/h N 14,7 C 18,2 C 0,4 km/h
17.06.2013 04:00 17,6 C 80 % 1015,5 hPa 0,0 l/m 0,0 km/h N 14,1 C 17,6 C 0,0 km/h
17.06.2013 05:00 17,5 C 78 % 1015,8 hPa 0,0 l/m 0,0 km/h N 13,6 C 17,5 C 0,0 km/h
17.06.2013 06:00 18,3 C 76 % 1015,8 hPa 0,0 l/m 0,0 km/h N 14,0 C 18,3 C 0,0 km/h
17.06.2013 07:00 19,5 C 75 % 1015,8 hPa 0,0 l/m 0,0 km/h N 14,9 C 19,5 C 2,4 km/h
17.06.2013 08:00 22,2 C 80 % 1015,7 hPa 0,0 l/m 0,3 km/h N 18,5 C 22,2 C 3,7 km/h
17.06.2013 09:00 24,6 C 77 % 1015,8 hPa 0,0 l/m 0,9 km/h N 20,3 C 24,6 C 5,6 km/h
17.06.2013 10:00 26,5 C 73 % 1015,7 hPa 0,0 l/m 1,2 km/h N 21,3 C 26,5 C 6,4 km/h
17.06.2013 11:00 27,9 C 69 % 1015,7 hPa 0,0 l/m 1,5 km/h N 21,5 C 27,9 C 8,9 km/h
17.06.2013 12:00 29,0 C 67 % 1015,4 hPa 0,0 l/m 1,9 km/h N 22,2 C 29,0 C 8,9 km/h
17.06.2013 13:00 29,1 C 68 % 1015,1 hPa 0,0 l/m 2,6 km/h N 22,6 C 29,1 C 9,7 km/h
17.06.2013 14:00 30,8 C 64 % 1014,5 hPa 0,0 l/m 2,9 km/h N 23,2 C 30,8 C 12,9 km/h
17.06.2013 15:00 31,6 C 59 % 1013,8 hPa 0,0 l/m 3,5 km/h N 22,6 C 31,6 C 15,3 km/h
17.06.2013 16:00 31,6 C 57 % 1013,3 hPa 0,0 l/m 5,0 km/h N 21,8 C 31,6 C 19,3 km/h
17.06.2013 17:00 31,7 C 54 % 1012,9 hPa 0,0 l/m 7,5 km/h N 21,2 C 31,7 C 21,3 km/h
17.06.2013 18:00 31,3 C 56 % 1012,8 hPa 0,0 l/m 5,3 km/h N 21,3 C 31,3 C 18,5 km/h
17.06.2013 19:00 30,3 C 58 % 1012,9 hPa 0,0 l/m 5,7 km/h N 21,0 C 30,2 C 18,9 km/h
17.06.2013 20:00 28,8 C 63 % 1013,1 hPa 0,0 l/m 1,5 km/h N 21,1 C 28,8 C 10,0 km/h
17.06.2013 21:00 26,6 C 70 % 1013,5 hPa 0,0 l/m 0,0 km/h N 20,5 C 26,6 C 0,4 km/h
17.06.2013 22:00 23,7 C 78 % 1013,8 hPa 0,0 l/m 0,0 km/h N 19,5 C 23,7 C 0,4 km/h
17.06.2013 23:00 22,3 C 81 % 1013,9 hPa 0,0 l/m 0,0 km/h N 18,9 C 22,3 C 0,4 km/h
18.06.2013 00:00 22,3 C 82 % 1013,9 hPa 0,0 l/m 0,1 km/h N 19,0 C 22,3 C 1,6 km/h
18.06.2013 01:00 22,7 C 80 % 1013,8 hPa 0,0 l/m 0,2 km/h N 19,1 C 22,7 C 3,2 km/h
18.06.2013 02:00 22,8 C 78 % 1013,4 hPa 0,0 l/m 0,5 km/h N 18,9 C 22,8 C 4,0 km/h
18.06.2013 03:00 21,5 C 80 % 1013,4 hPa 0,0 l/m 0,0 km/h N 17,9 C 21,5 C 0,4 km/h
18.06.2013 04:00 20,1 C 83 % 1013,4 hPa 0,0 l/m 0,0 km/h N 17,1 C 20,1 C 0,0 km/h
18.06.2013 05:00 19,3 C 82 % 1013,9 hPa 0,0 l/m 0,0 km/h N 16,1 C 19,3 C 0,0 km/h
18.06.2013 06:00 19,6 C 79 % 1014,3 hPa 0,0 l/m 0,0 km/h N 15,9 C 19,6 C 0,0 km/h
18.06.2013 07:00 21,2 C 78 % 1014,7 hPa 0,0 l/m 0,1 km/h N 17,1 C 21,2 C 2,4 km/h
18.06.2013 08:00 25,0 C 79 % 1014,6 hPa 0,0 l/m 0,2 km/h N 20,9 C 25,0 C 3,2 km/h
18.06.2013 09:00 28,3 C 69 % 1014,8 hPa 0,0 l/m 0,6 km/h N 21,9 C 28,3 C 5,6 km/h
18.06.2013 10:00 29,1 C 66 % 1014,8 hPa 0,0 l/m 1,2 km/h N 21,9 C 29,1 C 6,8 km/h
18.06.2013 11:00 30,5 C 63 % 1014,7 hPa 0,0 l/m 1,0 km/h N 22,6 C 30,5 C 6,8 km/h
18.06.2013 12:00 31,9 C 60 % 1014,5 hPa 0,0 l/m 1,8 km/h N 23,2 C 31,9 C 9,7 km/h
18.06.2013 13:00 32,8 C 58 % 1014,3 hPa 0,0 l/m 2,4 km/h N 23,4 C 32,8 C 10,1 km/h
18.06.2013 14:00 33,3 C 59 % 1014,0 hPa 0,0 l/m 1,5 km/h N 24,0 C 33,3 C 7,6 km/h
18.06.2013 15:00 33,2 C 58 % 1013,7 hPa 0,0 l/m 2,6 km/h N 23,9 C 33,2 C 14,5 km/h
18.06.2013 16:00 32,0 C 59 % 1013,5 hPa 0,0 l/m 3,8 km/h N 23,1 C 32,0 C 14,9 km/h
18.06.2013 17:00 31,3 C 63 % 1013,5 hPa 0,0 l/m 1,3 km/h N 23,3 C 31,3 C 9,7 km/h
18.06.2013 18:00 30,6 C 64 % 1013,4 hPa 0,0 l/m 1,1 km/h N 23,1 C 30,6 C 6,8 km/h
18.06.2013 19:00 30,2 C 66 % 1013,6 hPa 0,0 l/m 0,9 km/h N 23,2 C 30,2 C 6,8 km/h
18.06.2013 20:00 29,6 C 70 % 1014,1 hPa 0,0 l/m 0,0 km/h N 23,4 C 29,6 C 0,4 km/h
18.06.2013 21:00 27,0 C 75 % 1014,7 hPa 0,0 l/m 0,0 km/h N 22,1 C 27,0 C 0,0 km/h
18.06.2013 22:00 24,9 C 80 % 1015,0 hPa 0,0 l/m 0,0 km/h N 21,3 C 24,9 C 0,0 km/h
18.06.2013 23:00 23,7 C 82 % 1014,9 hPa 0,0 l/m 0,0 km/h N 20,4 C 23,7 C 1,6 km/h
19.06.2013 00:00 23,0 C 81 % 1014,8 hPa 0,0 l/m 0,0 km/h N 19,5 C 23,0 C 1,2 km/h
19.06.2013 01:00 22,7 C 80 % 1014,7 hPa 0,0 l/m 0,0 km/h N 19,0 C 22,7 C 0,4 km/h
19.06.2013 02:00 22,2 C 79 % 1014,6 hPa 0,0 l/m 0,0 km/h N 18,5 C 22,2 C 0,0 km/h
19.06.2013 03:00 21,8 C 78 % 1014,6 hPa 0,0 l/m 0,0 km/h N 17,9 C 21,8 C 1,2 km/h
19.06.2013 04:00 21,2 C 78 % 1014,8 hPa 0,0 l/m 0,0 km/h N 17,2 C 21,2 C 0,0 km/h
19.06.2013 05:00 20,9 C 78 % 1015,3 hPa 0,0 l/m 0,0 km/h N 16,8 C 20,9 C 0,0 km/h
19.06.2013 06:00 21,1 C 76 % 1015,5 hPa 0,0 l/m 0,0 km/h N 16,7 C 21,1 C 0,0 km/h
19.06.2013 07:00 22,0 C 74 % 1015,5 hPa 0,0 l/m 0,0 km/h N 17,2 C 22,0 C 0,4 km/h
19.06.2013 08:00 24,6 C 78 % 1015,4 hPa 0,0 l/m 0,8 km/h N 20,4 C 24,6 C 5,6 km/h
19.06.2013 09:00 27,6 C 71 % 1015,4 hPa 0,0 l/m 1,6 km/h N 21,8 C 27,6 C 9,3 km/h
19.06.2013 10:00 28,9 C 71 % 1015,3 hPa 0,0 l/m 1,2 km/h N 23,0 C 28,9 C 7,2 km/h
19.06.2013 11:00 30,3 C 68 % 1015,0 hPa 0,0 l/m 1,6 km/h N 23,6 C 30,3 C 7,6 km/h
19.06.2013 12:00 31,7 C 62 % 1014,6 hPa 0,0 l/m 2,4 km/h N 23,5 C 31,7 C 12,1 km/h
19.06.2013 13:00 32,8 C 53 % 1014,2 hPa 0,0 l/m 4,3 km/h N 21,8 C 32,8 C 16,5 km/h
19.06.2013 14:00 33,0 C 53 % 1013,8 hPa 0,0 l/m 4,9 km/h N 22,0 C 33,0 C 17,3 km/h
19.06.2013 15:00 33,0 C 53 % 1013,2 hPa 0,0 l/m 4,7 km/h N 22,2 C 33,0 C 19,3 km/h
19.06.2013 16:00 32,7 C 54 % 1012,9 hPa 0,0 l/m 3,3 km/h N 22,1 C 32,7 C 13,3 km/h
19.06.2013 17:00 32,7 C 55 % 1012,3 hPa 0,0 l/m 3,4 km/h N 22,4 C 32,7 C 14,5 km/h
19.06.2013 18:00 32,2 C 57 % 1012,3 hPa 0,0 l/m 3,1 km/h N 22,4 C 32,2 C 14,9 km/h
19.06.2013 19:00 31,3 C 60 % 1012,5 hPa 0,0 l/m 1,6 km/h N 22,5 C 31,3 C 9,3 km/h
19.06.2013 20:00 29,8 C 64 % 1012,4 hPa 0,0 l/m 0,7 km/h N 22,3 C 29,8 C 6,4 km/h
19.06.2013 21:00 28,3 C 68 % 1012,6 hPa 0,0 l/m 0,5 km/h N 21,9 C 28,3 C 4,4 km/h
19.06.2013 22:00 26,5 C 75 % 1012,8 hPa 0,0 l/m 0,0 km/h N 21,7 C 26,5 C 0,4 km/h
19.06.2013 23:00 24,6 C 81 % 1012,6 hPa 0,0 l/m 0,0 km/h N 21,0 C 24,6 C 0,0 km/h
20.06.2013 00:00 23,5 C 82 % 1012,4 hPa 0,0 l/m 0,0 km/h N 20,3 C 23,5 C 0,0 km/h
20.06.2013 01:00 22,9 C 81 % 1012,2 hPa 0,0 l/m 0,0 km/h N 19,5 C 22,9 C 0,0 km/h
20.06.2013 02:00 22,4 C 80 % 1011,9 hPa 0,0 l/m 0,0 km/h N 18,7 C 22,4 C 0,0 km/h
20.06.2013 03:00 21,8 C 79 % 1012,0 hPa 0,0 l/m 0,0 km/h N 18,0 C 21,8 C 0,0 km/h
20.06.2013 04:00 21,5 C 78 % 1012,1 hPa 0,0 l/m 0,2 km/h N 17,5 C 21,5 C 2,1 km/h
20.06.2013 05:00 21,7 C 78 % 1012,1 hPa 0,0 l/m 0,2 km/h N 17,6 C 21,7 C 2,8 km/h
20.06.2013 06:00 21,6 C 77 % 1012,3 hPa 0,0 l/m 0,0 km/h N 17,4 C 21,6 C 0,4 km/h
20.06.2013 07:00 22,8 C 80 % 1012,3 hPa 0,0 l/m 2,3 km/h N 19,1 C 22,8 C 10,5 km/h
20.06.2013 08:00 25,7 C 78 % 1012,1 hPa 0,0 l/m 2,4 km/h N 21,5 C 25,7 C 9,3 km/h
20.06.2013 09:00 28,3 C 73 % 1011,9 hPa 0,0 l/m 1,6 km/h N 22,9 C 28,3 C 7,2 km/h
20.06.2013 10:00 30,1 C 67 % 1011,7 hPa 0,0 l/m 4,0 km/h N 23,1 C 30,1 C 16,1 km/h
20.06.2013 11:00 31,3 C 60 % 1011,3 hPa 0,0 l/m 11,6 km/h N 22,5 C 31,0 C 27,4 km/h
20.06.2013 12:00 32,6 C 56 % 1011,0 hPa 0,0 l/m 14,1 km/h N 22,5 C 32,6 C 30,2 km/h
20.06.2013 13:00 33,5 C 51 % 1010,7 hPa 0,0 l/m 13,4 km/h N 21,8 C 33,5 C 29,0 km/h
20.06.2013 14:00 34,2 C 48 % 1010,3 hPa 0,0 l/m 12,3 km/h N 21,7 C 34,2 C 28,2 km/h
20.06.2013 15:00 33,9 C 51 % 1010,0 hPa 0,0 l/m 12,9 km/h N 22,2 C 33,9 C 30,6 km/h
20.06.2013 16:00 33,7 C 50 % 1009,4 hPa 0,0 l/m 11,0 km/h N 21,8 C 33,7 C 27,0 km/h
20.06.2013 17:00 33,5 C 49 % 1009,0 hPa 0,0 l/m 10,8 km/h N 21,2 C 33,5 C 26,9 km/h
20.06.2013 18:00 32,8 C 51 % 1008,7 hPa 0,0 l/m 11,3 km/h N 21,1 C 32,7 C 27,0 km/h
20.06.2013 19:00 31,8 C 54 % 1008,5 hPa 0,0 l/m 7,7 km/h N 21,2 C 31,8 C 19,7 km/h
20.06.2013 20:00 30,4 C 59 % 1008,3 hPa 0,0 l/m 6,3 km/h N 21,4 C 30,3 C 18,9 km/h
20.06.2013 21:00 28,8 C 63 % 1008,4 hPa 0,0 l/m 4,1 km/h N 21,1 C 28,8 C 13,7 km/h
20.06.2013 22:00 27,3 C 68 % 1008,5 hPa 0,0 l/m 2,2 km/h N 20,8 C 27,3 C 8,5 km/h
20.06.2013 23:00 26,1 C 72 % 1008,3 hPa 0,0 l/m 0,2 km/h N 20,5 C 26,1 C 3,2 km/h
21.06.2013 00:00 25,2 C 75 % 1008,1 hPa 0,0 l/m 0,9 km/h N 20,4 C 25,2 C 5,2 km/h
21.06.2013 01:00 24,1 C 78 % 1007,6 hPa 0,0 l/m 0,2 km/h N 20,0 C 24,1 C 4,4 km/h
21.06.2013 02:00 23,7 C 78 % 1007,1 hPa 0,0 l/m 1,3 km/h N 19,6 C 23,7 C 6,0 km/h
21.06.2013 03:00 22,8 C 78 % 1007,3 hPa 0,0 l/m 0,1 km/h N 18,7 C 22,8 C 1,6 km/h
21.06.2013 04:00 21,1 C 82 % 1007,9 hPa 0,0 l/m 0,9 km/h N 17,9 C 21,1 C 8,0 km/h
21.06.2013 05:00 24,4 C 68 % 1008,0 hPa 0,0 l/m 12,4 km/h N 18,1 C 23,0 C 37,8 km/h
21.06.2013 06:00 23,4 C 67 % 1009,0 hPa 0,0 l/m 10,6 km/h N 17,0 C 22,3 C 36,6 km/h
21.06.2013 07:00 23,4 C 67 % 1010,1 hPa 0,0 l/m 7,7 km/h N 16,8 C 23,0 C 29,4 km/h
21.06.2013 08:00 24,4 C 64 % 1011,4 hPa 0,0 l/m 5,7 km/h N 17,1 C 24,3 C 22,9 km/h
21.06.2013 09:00 24,7 C 60 % 1012,1 hPa 0,0 l/m 6,5 km/h N 16,3 C 24,5 C 25,0 km/h
21.06.2013 10:00 25,0 C 60 % 1012,9 hPa 0,0 l/m 8,3 km/h N 16,7 C 24,5 C 23,7 km/h
21.06.2013 11:00 25,2 C 60 % 1013,4 hPa 0,0 l/m 10,7 km/h N 16,8 C 24,2 C 28,6 km/h
21.06.2013 12:00 26,0 C 57 % 1013,0 hPa 0,0 l/m 7,9 km/h N 16,9 C 25,7 C 20,1 km/h
21.06.2013 13:00 27,0 C 55 % 1012,6 hPa 0,0 l/m 5,0 km/h N 17,3 C 27,0 C 15,3 km/h
21.06.2013 14:00 28,1 C 53 % 1012,3 hPa 0,0 l/m 3,0 km/h N 17,6 C 28,1 C 9,7 km/h
21.06.2013 15:00 29,0 C 51 % 1012,1 hPa 0,0 l/m 2,1 km/h N 17,8 C 29,0 C 8,0 km/h
21.06.2013 16:00 29,2 C 52 % 1011,7 hPa 0,0 l/m 1,2 km/h N 18,2 C 29,2 C 6,8 km/h
21.06.2013 17:00 28,9 C 53 % 1011,5 hPa 0,0 l/m 0,9 km/h N 18,4 C 28,9 C 6,8 km/h
21.06.2013 18:00 29,1 C 54 % 1011,5 hPa 0,0 l/m 0,3 km/h N 18,8 C 29,1 C 4,0 km/h
21.06.2013 19:00 29,0 C 57 % 1011,5 hPa 0,0 l/m 0,1 km/h N 19,7 C 29,0 C 2,8 km/h
21.06.2013 20:00 26,8 C 63 % 1011,9 hPa 0,0 l/m 0,2 km/h N 19,2 C 26,8 C 3,2 km/h
21.06.2013 21:00 25,4 C 67 % 1012,3 hPa 0,0 l/m 0,0 km/h N 18,7 C 25,4 C 0,4 km/h
21.06.2013 22:00 23,8 C 73 % 1012,9 hPa 0,0 l/m 0,0 km/h N 18,5 C 23,8 C 0,8 km/h
21.06.2013 23:00 23,1 C 72 % 1013,2 hPa 0,0 l/m 0,2 km/h N 17,6 C 23,1 C 4,0 km/h
22.06.2013 00:00 23,4 C 66 % 1013,3 hPa 0,0 l/m 0,9 km/h N 16,6 C 23,4 C 6,8 km/h
22.06.2013 01:00 23,9 C 59 % 1013,4 hPa 0,0 l/m 1,9 km/h N 15,4 C 23,9 C 10,9 km/h
22.06.2013 02:00 23,8 C 58 % 1013,1 hPa 0,0 l/m 4,5 km/h N 15,0 C 23,8 C 16,9 km/h
22.06.2013 03:00 23,2 C 62 % 1013,0 hPa 0,0 l/m 6,7 km/h N 15,6 C 22,9 C 22,1 km/h
22.06.2013 04:00 22,4 C 71 % 1013,5 hPa 0,0 l/m 6,6 km/h N 16,9 C 22,1 C 20,9 km/h
22.06.2013 05:00 21,5 C 76 % 1014,0 hPa 0,0 l/m 6,2 km/h N 17,1 C 21,4 C 16,5 km/h
22.06.2013 06:00 20,9 C 74 % 1014,2 hPa 0,0 l/m 6,2 km/h N 16,2 C 20,8 C 19,7 km/h
22.06.2013 07:00 21,5 C 74 % 1014,4 hPa 0,0 l/m 7,4 km/h N 16,5 C 21,1 C 21,3 km/h
22.06.2013 08:00 22,5 C 70 % 1014,3 hPa 0,0 l/m 8,2 km/h N 16,6 C 21,9 C 23,3 km/h
22.06.2013 09:00 23,1 C 66 % 1014,5 hPa 0,0 l/m 8,6 km/h N 16,3 C 22,5 C 21,7 km/h
22.06.2013 10:00 23,8 C 63 % 1014,3 hPa 0,0 l/m 7,4 km/h N 16,2 C 23,5 C 18,9 km/h
22.06.2013 11:00 24,5 C 62 % 1014,3 hPa 0,0 l/m 8,0 km/h N 16,8 C 24,1 C 21,7 km/h
22.06.2013 12:00 25,5 C 61 % 1014,1 hPa 0,0 l/m 6,0 km/h N 17,5 C 25,5 C 17,3 km/h
22.06.2013 13:00 25,5 C 61 % 1013,8 hPa 0,0 l/m 5,4 km/h N 17,3 C 25,5 C 17,7 km/h
22.06.2013 14:00 26,1 C 62 % 1013,1 hPa 0,0 l/m 5,6 km/h N 18,1 C 26,1 C 17,7 km/h
22.06.2013 15:00 27,0 C 59 % 1012,3 hPa 0,0 l/m 5,5 km/h N 18,2 C 26,9 C 15,3 km/h
22.06.2013 16:00 26,8 C 59 % 1011,8 hPa 0,0 l/m 4,8 km/h N 18,0 C 26,8 C 13,3 km/h
22.06.2013 17:00 25,4 C 63 % 1011,6 hPa 0,0 l/m 3,7 km/h N 17,8 C 25,4 C 13,7 km/h
22.06.2013 18:00 24,1 C 74 % 1012,0 hPa 0,8 l/m 1,0 km/h N 19,1 C 24,1 C 5,6 km/h
22.06.2013 19:00 22,3 C 82 % 1012,6 hPa 0,8 l/m 1,5 km/h N 19,0 C 22,3 C 8,8 km/h
22.06.2013 20:00 20,8 C 81 % 1013,0 hPa 0,8 l/m 6,4 km/h N 17,3 C 20,3 C 17,3 km/h
22.06.2013 21:00 20,0 C 80 % 1012,7 hPa 0,3 l/m 0,4 km/h N 16,3 C 20,0 C 4,0 km/h
22.06.2013 22:00 19,5 C 82 % 1013,0 hPa 0,0 l/m 0,7 km/h N 16,3 C 19,5 C 4,4 km/h
22.06.2013 23:00 18,9 C 80 % 1013,0 hPa 0,3 l/m 0,4 km/h N 15,3 C 18,9 C 5,6 km/h
23.06.2013 00:00 19,2 C 78 % 1013,3 hPa 0,0 l/m 1,1 km/h N 15,3 C 19,2 C 7,3 km/h
23.06.2013 01:00 19,1 C 80 % 1012,7 hPa 0,0 l/m 0,6 km/h N 15,6 C 19,1 C 4,8 km/h
23.06.2013 02:00 19,2 C 79 % 1012,4 hPa 0,0 l/m 0,3 km/h N 15,5 C 19,2 C 4,4 km/h
23.06.2013 03:00 19,3 C 79 % 1012,6 hPa 0,0 l/m 0,3 km/h N 15,6 C 19,3 C 3,7 km/h
23.06.2013 04:00 19,7 C 78 % 1012,2 hPa 0,0 l/m 0,8 km/h N 15,7 C 19,7 C 16,1 km/h
23.06.2013 05:00 19,8 C 76 % 1012,0 hPa 0,0 l/m 4,0 km/h N 15,4 C 19,8 C 19,3 km/h
23.06.2013 06:00 19,8 C 74 % 1012,3 hPa 0,0 l/m 3,2 km/h N 15,0 C 19,8 C 17,7 km/h
23.06.2013 07:00 20,5 C 73 % 1013,0 hPa 0,0 l/m 3,2 km/h N 15,5 C 20,5 C 24,1 km/h
23.06.2013 08:00 22,0 C 68 % 1013,0 hPa 0,0 l/m 5,6 km/h N 15,9 C 22,1 C 21,7 km/h
23.06.2013 09:00 22,6 C 65 % 1012,8 hPa 0,0 l/m 10,5 km/h N 15,7 C 21,4 C 30,6 km/h
23.06.2013 10:00 23,5 C 66 % 1012,8 hPa 0,0 l/m 9,7 km/h N 16,6 C 22,5 C 24,9 km/h
23.06.2013 11:00 24,0 C 65 % 1012,6 hPa 0,0 l/m 8,9 km/h N 16,9 C 23,4 C 25,8 km/h
23.06.2013 12:00 25,0 C 60 % 1012,3 hPa 0,0 l/m 8,0 km/h N 16,6 C 24,5 C 24,9 km/h
23.06.2013 13:00 25,8 C 56 % 1011,9 hPa 0,0 l/m 8,9 km/h N 16,3 C 25,2 C 25,8 km/h
23.06.2013 14:00 26,5 C 55 % 1011,6 hPa 0,0 l/m 6,4 km/h N 16,5 C 26,3 C 24,1 km/h
23.06.2013 15:00 26,9 C 53 % 1011,1 hPa 0,0 l/m 7,2 km/h N 16,3 C 26,8 C 20,9 km/h
23.06.2013 16:00 27,3 C 51 % 1010,8 hPa 0,0 l/m 6,4 km/h N 16,1 C 27,3 C 20,9 km/h
23.06.2013 17:00 27,3 C 49 % 1010,5 hPa 0,0 l/m 7,2 km/h N 15,5 C 27,2 C 20,9 km/h
23.06.2013 18:00 27,3 C 48 % 1010,2 hPa 0,0 l/m 4,8 km/h N 15,1 C 27,3 C 13,7 km/h
23.06.2013 19:00 26,1 C 50 % 1010,0 hPa 0,0 l/m 2,4 km/h N 15,0 C 26,1 C 10,2 km/h
23.06.2013 20:00 25,6 C 54 % 1010,2 hPa 0,0 l/m 3,0 km/h N 15,5 C 25,6 C 11,7 km/h
23.06.2013 21:00 24,2 C 57 % 1010,7 hPa 0,0 l/m 3,3 km/h N 15,0 C 24,2 C 12,1 km/h
23.06.2013 22:00 23,4 C 60 % 1011,1 hPa 0,0 l/m 2,8 km/h N 15,3 C 23,4 C 9,7 km/h
23.06.2013 23:00 22,8 C 62 % 1010,9 hPa 0,0 l/m 0,8 km/h N 15,1 C 22,8 C 6,4 km/h
Min-Datum _ 17.06.13 23.06.13 21.06.13 - 17.06.13 - 17.06.13 17.06.13 17.06.13
_ Min-Zeit 05:15 17:30 02:45 - 00:00 - 05:45 05:00 00:00
Minimum _ 17,3 C 45 % 1007,0 hPa - 0,0 km/h - 13,6 C 17,3 C 0,0 km/h
Max-Datum _ 20.06.13 18.06.13 17.06.13 22.06.13 21.06.13 - 18.06.13 20.06.13 21.06.13
_ Max-Zeit 14:15 04:15 05:45 18:15 05:00 - 14:30 14:15 06:15
Maximum _ 34,4 C 83 % 1016,0 hPa 0,8 l/m 16,3 km/h
N
- 24,5 C 34,3 C 45,1 km/h
N
Durchschnitt _ 25,5 C 68 % 1012,8 hPa #2,9 l/m 3,2 km/h N 18,9 C 25,5 C 11,1 km/h